Time;durP1;ratioP1;P1;durP2;ratioP2;P2;SDS_P1;SDS_P2;PMS_P1;PMS_P2;Temp;Humidity;BMP_temperature;BMP_pressure;BME280_temperature;BME280_humidity;BME280_pressure;Samples;Min_cycle;Max_cycle;Signal;HPM_P1;HPM_P2
2021/06/05 00:00:30;;;;;;;10.43;7.90;;;;;;;18.06;100.00;99685.09;4957490;29;20693;-74
2021/06/05 00:02:57;;;;;;;10.07;7.53;;;;;;;18.14;100.00;99688.03;4957627;28;20594;-74
2021/06/05 00:05:25;;;;;;;8.48;7.35;;;;;;;18.46;100.00;99679.69;4957192;29;20302;-74
2021/06/05 00:07:52;;;;;;;8.68;7.75;;;;;;;18.17;100.00;99676.84;4957111;28;20279;-73
2021/06/05 00:10:29;;;;;;;10.32;7.70;;;;;;;18.31;100.00;99679.19;4956977;29;20612;-74
2021/06/05 00:12:57;;;;;;;10.13;8.88;;;;;;;18.63;100.00;99677.31;4956868;29;20325;-74
2021/06/05 00:15:32;;;;;;;12.50;7.63;;;;;;;18.77;100.00;99690.63;4956790;29;20194;-74
2021/06/05 00:17:58;;;;;;;8.73;6.95;;;;;;;18.76;100.00;99683.38;4957234;29;20269;-74
2021/06/05 00:20:28;;;;;;;8.60;7.28;;;;;;;18.75;100.00;99693.44;4956656;28;20293;-74
2021/06/05 00:22:55;;;;;;;7.35;6.53;;;;;;;18.70;100.00;99689.38;4956581;29;20191;-74
2021/06/05 00:25:22;;;;;;;7.82;7.03;;;;;;;18.44;100.00;99684.44;4951161;29;20224;-74
2021/06/05 00:27:48;;;;;;;10.73;6.88;;;;;;;18.23;100.00;99675.47;4937641;29;20291;-74
2021/06/05 00:30:17;;;;;;;7.90;7.10;;;;;;;18.27;100.00;99677.78;4938842;29;20196;-74
2021/06/05 00:32:43;;;;;;;8.80;7.57;;;;;;;18.20;100.00;99676.56;4937860;29;20273;-74
2021/06/05 00:35:10;;;;;;;9.02;7.90;;;;;;;18.25;100.00;99685.22;4937222;29;20298;-73
2021/06/05 00:37:36;;;;;;;8.98;7.03;;;;;;;18.24;100.00;99693.53;4937463;29;20196;-72
2021/06/05 00:40:04;;;;;;;14.20;7.00;;;;;;;18.52;100.00;99692.78;4937630;29;20211;-74
2021/06/05 00:42:30;;;;;;;7.38;6.45;;;;;;;18.63;100.00;99691.84;4937473;29;20238;-72
2021/06/05 00:44:56;;;;;;;7.93;7.13;;;;;;;18.83;100.00;99691.91;4937131;29;20234;-73
2021/06/05 00:47:23;;;;;;;7.50;6.78;;;;;;;18.86;100.00;99692.50;4937221;29;20298;-73
2021/06/05 00:49:50;;;;;;;7.10;6.07;;;;;;;18.74;100.00;99688.97;4938335;29;20329;-72
2021/06/05 00:52:19;;;;;;;7.05;6.35;;;;;;;18.74;100.00;99691.69;4937032;29;20210;-74
2021/06/05 00:54:46;;;;;;;7.50;6.30;;;;;;;18.84;100.00;99686.31;4937235;29;20670;-74
2021/06/05 00:57:12;;;;;;;9.05;7.70;;;;;;;18.96;100.00;99692.50;4937441;29;20276;-73
2021/06/05 00:59:39;;;;;;;8.50;6.25;;;;;;;19.20;98.50;99683.03;4936895;29;20235;-72
2021/06/05 01:02:05;;;;;;;7.63;6.72;;;;;;;19.17;100.00;99678.75;4936766;29;20194;-73
2021/06/05 01:04:33;;;;;;;7.25;6.55;;;;;;;19.15;98.74;99683.47;4937500;29;20507;-73
2021/06/05 01:07:05;;;;;;;6.90;6.20;;;;;;;18.88;100.00;99679.59;4936964;29;20295;-73
2021/06/05 01:09:36;;;;;;;6.93;6.20;;;;;;;19.02;100.00;99691.09;4936247;29;20286;-73
2021/06/05 01:12:06;;;;;;;10.38;7.50;;;;;;;19.03;100.00;99676.44;4936893;29;20264;-73
2021/06/05 01:14:38;;;;;;;8.15;6.57;;;;;;;18.99;100.00;99683.19;4937231;29;20597;-73
2021/06/05 01:17:07;;;;;;;8.32;6.60;;;;;;;19.11;100.00;99668.41;4936986;29;20651;-73
2021/06/05 01:19:51;;;;;;;8.18;7.07;;;;;;;19.15;98.12;99672.56;4950910;29;20687;-74
2021/06/05 01:22:27;;;;;;;8.35;7.55;;;;;;;19.16;99.71;99666.13;4955665;29;20203;-74
2021/06/05 01:25:07;;;;;;;8.48;7.18;;;;;;;19.17;99.61;99665.09;4955677;29;20290;-74
2021/06/05 01:27:38;;;;;;;8.80;6.53;;;;;;;19.10;99.95;99673.00;4954238;29;20227;-75
2021/06/05 01:30:18;;;;;;;7.60;6.70;;;;;;;19.12;99.74;99672.84;4955534;28;20215;-73
2021/06/05 01:32:45;;;;;;;8.43;6.50;;;;;;;19.02;100.00;99677.47;4955861;29;20713;-74
2021/06/05 01:35:14;;;;;;;7.43;6.72;;;;;;;19.07;100.00;99667.81;4955980;29;20561;-74
2021/06/05 01:37:41;;;;;;;7.80;6.75;;;;;;;19.03;99.99;99668.25;4955679;29;20634;-73
2021/06/05 01:40:10;;;;;;;7.78;6.30;;;;;;;18.98;100.00;99659.63;4955974;29;20184;-73
2021/06/05 01:42:41;;;;;;;7.47;6.78;;;;;;;19.02;100.00;99663.81;4955433;29;20197;-74
2021/06/05 01:45:13;;;;;;;7.65;6.85;;;;;;;19.08;100.00;99655.88;4955216;29;20199;-73
2021/06/05 01:47:39;;;;;;;8.65;7.75;;;;;;;18.88;100.00;99655.03;4954150;28;20327;-74
2021/06/05 01:50:07;;;;;;;11.40;6.57;;;;;;;18.58;100.00;99655.06;4936238;29;20219;-73
2021/06/05 01:52:36;;;;;;;8.95;7.80;;;;;;;18.61;100.00;99654.78;4936079;29;20331;-75
2021/06/05 01:55:06;;;;;;;9.43;7.20;;;;;;;18.52;100.00;99649.16;4938749;29;20191;-73
2021/06/05 01:57:36;;;;;;;8.73;7.85;;;;;;;18.38;100.00;99652.25;4955294;29;20334;-73
2021/06/05 02:00:09;;;;;;;9.15;7.57;;;;;;;18.31;100.00;99651.09;4955354;29;20702;-74
2021/06/05 02:02:35;;;;;;;8.55;6.88;;;;;;;18.25;100.00;99638.88;4955513;29;20606;-74
2021/06/05 02:05:01;;;;;;;16.75;7.95;;;;;;;18.24;100.00;99641.75;4955247;29;20186;-74
2021/06/05 02:07:28;;;;;;;7.95;6.90;;;;;;;18.08;100.00;99640.38;4954897;29;20194;-73
2021/06/05 02:09:54;;;;;;;7.70;7.00;;;;;;;18.19;100.00;99638.56;4955344;29;20783;-74
2021/06/05 02:12:26;;;;;;;11.65;8.20;;;;;;;18.36;100.00;99646.09;4954719;28;20270;-73
2021/06/05 02:14:59;;;;;;;9.65;6.97;;;;;;;18.48;100.00;99658.63;4954735;29;20221;-74
2021/06/05 02:17:27;;;;;;;7.65;6.85;;;;;;;18.61;100.00;99655.66;4954594;29;20314;-74
2021/06/05 02:19:58;;;;;;;7.63;6.60;;;;;;;18.72;100.00;99649.19;4954816;28;20202;-73
2021/06/05 02:22:28;;;;;;;10.15;6.20;;;;;;;18.79;100.00;99658.59;4955088;29;20246;-73
2021/06/05 02:24:59;;;;;;;7.60;6.88;;;;;;;18.83;100.00;99668.22;4954598;29;20204;-72
2021/06/05 02:27:28;;;;;;;8.43;7.50;;;;;;;18.83;100.00;99667.34;4954407;28;20331;-73
2021/06/05 02:29:56;;;;;;;8.20;7.50;;;;;;;18.94;100.00;99664.50;4954462;29;20315;-73
2021/06/05 02:32:24;;;;;;;8.95;7.25;;;;;;;19.06;100.00;99663.38;4954751;28;20622;-74
2021/06/05 02:34:53;;;;;;;7.70;7.00;;;;;;;18.99;99.96;99661.34;4954783;29;20238;-73
2021/06/05 02:37:26;;;;;;;8.63;6.68;;;;;;;18.62;100.00;99657.38;4954918;29;20291;-73
2021/06/05 02:39:55;;;;;;;7.82;6.55;;;;;;;18.77;100.00;99657.88;4954273;29;20199;-73
2021/06/05 02:42:22;;;;;;;8.25;6.55;;;;;;;18.70;100.00;99659.38;4954569;29;20208;-73
2021/06/05 02:44:51;;;;;;;13.18;6.82;;;;;;;18.69;100.00;99654.94;4954312;29;20250;-74
2021/06/05 02:47:19;;;;;;;9.90;6.55;;;;;;;18.89;100.00;99659.47;4942203;28;20200;-73
2021/06/05 02:49:46;;;;;;;7.78;7.07;;;;;;;18.99;100.00;99664.94;4935229;29;20324;-73
2021/06/05 02:52:29;;;;;;;8.25;7.43;;;;;;;19.10;99.89;99663.94;4935276;29;20269;-74
2021/06/05 02:54:57;;;;;;;7.25;6.60;;;;;;;19.15;97.95;99664.38;4935127;29;20189;-73
2021/06/05 02:57:23;;;;;;;8.07;7.20;;;;;;;19.08;97.43;99655.03;4935213;29;20302;-73
2021/06/05 02:59:50;;;;;;;7.05;6.35;;;;;;;19.09;97.96;99659.50;4935293;29;20616;-73
2021/06/05 03:02:16;;;;;;;7.80;6.97;;;;;;;19.07;97.33;99658.78;4934881;29;20256;-73
2021/06/05 03:04:42;;;;;;;14.65;7.90;;;;;;;19.16;97.81;99660.66;4935176;29;20205;-73
2021/06/05 03:07:09;;;;;;;8.77;6.93;;;;;;;19.33;96.48;99659.06;4935153;29;20185;-73
2021/06/05 03:09:36;;;;;;;8.60;6.57;;;;;;;19.35;95.98;99663.38;4934951;29;20232;-73
2021/06/05 03:12:09;;;;;;;8.40;7.38;;;;;;;19.52;93.97;99670.00;4934922;29;20714;-72
2021/06/05 03:14:36;;;;;;;8.10;6.68;;;;;;;19.51;94.60;99670.13;4934853;29;20297;-72
2021/06/05 03:17:04;;;;;;;8.80;7.25;;;;;;;19.49;94.87;99673.03;4946748;29;20677;-72
2021/06/05 03:19:30;;;;;;;10.00;7.20;;;;;;;19.46;94.78;99672.44;4954282;29;20613;-73
2021/06/05 03:21:56;;;;;;;8.40;7.35;;;;;;;19.43;96.24;99667.28;4954459;29;20525;-73
2021/06/05 03:24:22;;;;;;;9.25;7.75;;;;;;;19.50;95.54;99662.97;4954239;29;20192;-73
2021/06/05 03:26:50;;;;;;;8.93;7.45;;;;;;;19.56;95.87;99663.25;4953973;28;20254;-73
2021/06/05 03:29:16;;;;;;;9.23;8.13;;;;;;;19.53;95.79;99670.84;4953957;28;20224;-73
2021/06/05 03:31:42;;;;;;;11.30;8.20;;;;;;;19.53;95.79;99665.38;4955192;28;20527;-74
2021/06/05 03:34:08;;;;;;;9.93;7.80;;;;;;;19.66;95.09;99655.03;4957786;29;20457;-73
2021/06/05 03:36:35;;;;;;;9.00;8.18;;;;;;;19.09;97.25;99649.44;4957910;29;20581;-73
2021/06/05 03:39:01;;;;;;;11.93;7.35;;;;;;;18.84;100.00;99631.75;4957984;29;20200;-73
2021/06/05 03:41:28;;;;;;;9.10;8.05;;;;;;;18.99;100.00;99637.66;4957881;29;20573;-73
2021/06/05 03:43:55;;;;;;;8.50;7.15;;;;;;;19.23;99.82;99631.78;4957975;29;20631;-74
2021/06/05 03:46:22;;;;;;;10.07;7.70;;;;;;;19.23;98.87;99633.66;4956186;29;20208;-74
2021/06/05 03:48:48;;;;;;;11.07;7.20;;;;;;;18.77;100.00;99636.06;4957704;29;20245;-73
2021/06/05 03:51:14;;;;;;;8.35;7.43;;;;;;;18.72;100.00;99638.28;4957541;29;20211;-73
2021/06/05 03:53:41;;;;;;;7.43;6.68;;;;;;;18.84;100.00;99639.94;4957773;29;20251;-73
2021/06/05 03:56:07;;;;;;;8.25;6.95;;;;;;;18.90;100.00;99647.56;4957774;29;20310;-74
2021/06/05 03:58:38;;;;;;;7.78;6.97;;;;;;;19.12;100.00;99651.03;4957991;29;20846;-73
2021/06/05 04:01:08;;;;;;;10.73;7.30;;;;;;;19.25;100.00;99646.16;4957717;28;20223;-74
2021/06/05 04:03:34;;;;;;;10.05;7.78;;;;;;;19.26;99.01;99642.41;4957494;28;20619;-75
2021/06/05 04:06:00;;;;;;;8.18;7.30;;;;;;;19.25;99.56;99646.16;4957399;29;20230;-73
2021/06/05 04:08:27;;;;;;;9.77;8.48;;;;;;;19.28;98.31;99647.72;4957374;28;20242;-73
2021/06/05 04:10:53;;;;;;;9.57;7.35;;;;;;;19.15;99.39;99650.72;4957102;28;20258;-74
2021/06/05 04:13:19;;;;;;;8.50;7.53;;;;;;;19.14;100.00;99659.94;4942368;29;20635;-73
2021/06/05 04:15:45;;;;;;;8.32;7.60;;;;;;;19.25;100.00;99661.66;4938276;29;20570;-73
2021/06/05 04:18:17;;;;;;;10.50;7.97;;;;;;;19.48;99.75;99654.91;4938285;29;20574;-72
2021/06/05 04:20:43;;;;;;;10.15;8.98;;;;;;;19.49;95.75;99658.47;4937937;29;20189;-74
2021/06/05 04:23:12;;;;;;;13.60;10.90;;;;;;;19.38;95.30;99660.38;4937998;29;20207;-73
2021/06/05 04:25:38;;;;;;;13.02;8.90;;;;;;;19.62;94.34;99656.31;4944659;29;20534;-74
2021/06/05 04:28:06;;;;;;;11.83;9.07;;;;;;;19.75;93.97;99662.38;4957139;29;20247;-73
2021/06/05 04:30:34;;;;;;;9.97;8.97;;;;;;;19.79;93.48;99661.06;4956956;29;20538;-73
2021/06/05 04:33:00;;;;;;;9.40;8.10;;;;;;;19.84;93.45;99665.25;4956887;29;20467;-74
2021/06/05 04:35:28;;;;;;;9.60;8.60;;;;;;;19.64;93.39;99662.50;4957026;28;20695;-73
2021/06/05 04:37:54;;;;;;;12.85;9.70;;;;;;;19.45;94.50;99662.53;4956727;29;20846;-73
2021/06/05 04:40:21;;;;;;;11.60;9.57;;;;;;;19.42;95.36;99671.84;4956550;29;20287;-73
2021/06/05 04:42:48;;;;;;;11.35;9.85;;;;;;;19.39;97.16;99669.41;4956719;28;20299;-74
2021/06/05 04:45:14;;;;;;;10.55;9.32;;;;;;;19.67;94.88;99675.00;4956898;29;20227;-74
2021/06/05 04:47:41;;;;;;;13.20;10.10;;;;;;;19.47;96.08;99679.59;4956360;29;20213;-73
2021/06/05 04:50:10;;;;;;;11.90;10.70;;;;;;;19.53;96.93;99684.50;4956586;29;20615;-74
2021/06/05 04:52:37;;;;;;;13.07;11.68;;;;;;;19.44;96.83;99675.31;4953615;29;20203;-73
2021/06/05 04:55:04;;;;;;;12.20;11.00;;;;;;;19.42;97.81;99679.19;4955007;29;20592;-72
2021/06/05 04:57:30;;;;;;;13.02;11.65;;;;;;;19.29;99.45;99674.03;4946401;29;20259;-73
2021/06/05 04:59:56;;;;;;;14.23;11.57;;;;;;;19.34;100.00;99683.50;4950770;29;20199;-73
2021/06/05 05:02:22;;;;;;;15.75;11.18;;;;;;;19.31;100.00;99681.06;4937987;29;20247;-73
2021/06/05 05:04:49;;;;;;;16.17;13.00;;;;;;;19.19;100.00;99684.91;4936913;29;20204;-74
2021/06/05 05:07:15;;;;;;;14.07;12.57;;;;;;;19.21;100.00;99687.53;4937340;29;20276;-73
2021/06/05 05:09:43;;;;;;;17.55;13.93;;;;;;;19.36;100.00;99684.22;4937160;29;20579;-74
2021/06/05 05:12:10;;;;;;;14.15;12.45;;;;;;;19.17;100.00;99681.47;4951047;29;20245;-73
2021/06/05 05:14:37;;;;;;;15.48;13.48;;;;;;;19.15;100.00;99687.09;4956128;29;20211;-73
2021/06/05 05:17:04;;;;;;;15.55;12.98;;;;;;;19.31;100.00;99688.38;4956183;29;20203;-73
2021/06/05 05:19:31;;;;;;;14.45;13.05;;;;;;;19.21;100.00;99691.09;4955861;29;20188;-73
2021/06/05 05:21:58;;;;;;;14.05;12.52;;;;;;;19.29;100.00;99683.09;4956109;29;20210;-74
2021/06/05 05:24:24;;;;;;;13.98;12.25;;;;;;;19.50;100.00;99685.66;4955627;29;20192;-74
2021/06/05 05:26:52;;;;;;;14.45;12.38;;;;;;;19.51;100.00;99690.09;4955629;29;20214;-73
2021/06/05 05:29:18;;;;;;;13.98;12.52;;;;;;;19.54;100.00;99688.97;4955492;29;20307;-74
2021/06/05 05:31:44;;;;;;;15.40;12.63;;;;;;;19.65;100.00;99691.56;4955975;29;20242;-73
2021/06/05 05:34:11;;;;;;;14.13;12.63;;;;;;;19.73;100.00;99688.97;4955535;29;20238;-74
2021/06/05 05:36:39;;;;;;;15.43;13.45;;;;;;;19.56;100.00;99682.34;4955397;29;20224;-73
2021/06/05 05:39:08;;;;;;;14.02;12.55;;;;;;;19.50;100.00;99684.81;4955888;28;20275;-74
2021/06/05 05:41:34;;;;;;;15.15;12.18;;;;;;;19.45;100.00;99687.97;4955657;29;20340;-73
2021/06/05 05:44:02;;;;;;;13.90;12.43;;;;;;;19.53;100.00;99693.56;4955678;29;20609;-73
2021/06/05 05:46:28;;;;;;;17.92;13.40;;;;;;;19.65;99.82;99696.13;4955734;29;20195;-74
2021/06/05 05:48:54;;;;;;;13.18;11.88;;;;;;;19.65;100.00;99696.13;4955440;29;20231;-73
2021/06/05 05:51:22;;;;;;;12.90;10.50;;;;;;;19.76;100.00;99687.81;4955668;29;20192;-74
2021/06/05 05:53:49;;;;;;;12.80;11.50;;;;;;;19.86;100.00;99694.13;4954933;28;20565;-74
2021/06/05 05:56:17;;;;;;;13.30;11.90;;;;;;;19.77;99.04;99695.03;4954964;29;20214;-74
2021/06/05 05:58:47;;;;;;;15.73;11.47;;;;;;;19.91;99.29;99691.81;4940834;28;20299;-74
2021/06/05 06:01:16;;;;;;;12.70;11.40;;;;;;;19.88;97.35;99691.28;4935882;29;20439;-74
2021/06/05 06:03:42;;;;;;;11.93;10.73;;;;;;;19.86;98.09;99698.75;4936155;29;20622;-74
2021/06/05 06:06:08;;;;;;;13.50;12.10;;;;;;;19.96;98.12;99694.97;4937506;29;20644;-74
2021/06/05 06:08:35;;;;;;;13.87;12.47;;;;;;;19.87;97.60;99704.03;4935940;29;20819;-74
2021/06/05 06:11:02;;;;;;;12.70;10.90;;;;;;;19.74;97.06;99696.19;4935765;29;20544;-74
2021/06/05 06:13:28;;;;;;;12.20;10.40;;;;;;;19.61;98.74;99695.56;4935645;29;20448;-75
2021/06/05 06:15:54;;;;;;;13.50;12.03;;;;;;;19.63;100.00;99696.28;4935140;29;20880;-74
2021/06/05 06:18:22;;;;;;;13.03;11.10;;;;;;;19.97;98.55;99690.38;4935573;29;20425;-74
2021/06/05 06:20:50;;;;;;;12.20;10.90;;;;;;;20.20;96.06;99699.09;4935671;29;20449;-75
2021/06/05 06:23:19;;;;;;;12.40;11.10;;;;;;;19.98;95.29;99706.63;4935537;29;20430;-74
2021/06/05 06:25:49;;;;;;;12.43;11.13;;;;;;;19.95;96.51;99708.78;4943637;29;20231;-74
2021/06/05 06:28:18;;;;;;;13.97;11.80;;;;;;;19.86;97.93;99702.34;4954808;29;20444;-75
2021/06/05 06:30:45;;;;;;;13.47;12.07;;;;;;;19.98;98.92;99694.81;4954406;28;20468;-75
2021/06/05 06:33:13;;;;;;;13.57;12.17;;;;;;;19.92;98.06;99699.03;4954467;29;20580;-74
2021/06/05 06:35:42;;;;;;;13.07;11.67;;;;;;;19.91;99.99;99701.91;4954917;28;20444;-73
2021/06/05 06:38:16;;;;;;;12.23;11.07;;;;;;;20.03;98.93;99697.13;4955042;29;20595;-74
2021/06/05 06:40:43;;;;;;;15.03;13.30;;;;;;;20.12;97.96;99704.44;4944612;29;20436;-75
2021/06/05 06:43:12;;;;;;;13.77;12.33;;;;;;;20.28;98.14;99709.28;4935402;29;20949;-74
2021/06/05 06:45:38;;;;;;;15.63;13.07;;;;;;;20.50;96.11;99706.16;4935255;29;20471;-73
2021/06/05 06:48:05;;;;;;;12.60;11.40;;;;;;;20.63;93.79;99705.00;4935271;29;20433;-73
2021/06/05 06:50:31;;;;;;;12.33;10.90;;;;;;;20.57;92.40;99714.66;4935366;29;20489;-74
2021/06/05 06:52:59;;;;;;;11.87;9.93;;;;;;;20.51;91.78;99712.50;4935247;29;20472;-73
2021/06/05 06:55:26;;;;;;;11.03;9.93;;;;;;;20.62;90.93;99717.81;4944620;29;20845;-74
2021/06/05 06:57:52;;;;;;;13.60;11.13;;;;;;;20.78;87.87;99718.03;4954664;29;20579;-75
2021/06/05 07:00:23;;;;;;;10.40;9.40;;;;;;;20.70;88.17;99725.28;4954117;29;20424;-74
2021/06/05 07:02:49;;;;;;;11.17;10.07;;;;;;;20.61;88.96;99722.41;4954459;29;20425;-74
2021/06/05 07:05:15;;;;;;;11.70;10.53;;;;;;;20.41;89.99;99726.22;4953752;28;20456;-74
2021/06/05 07:07:41;;;;;;;12.93;11.63;;;;;;;20.51;91.27;99729.78;4953740;29;20456;-73
2021/06/05 07:10:10;;;;;;;12.53;10.90;;;;;;;20.58;90.14;99724.63;4954057;29;20496;-73
2021/06/05 07:12:36;;;;;;;11.70;10.60;;;;;;;20.82;90.02;99724.91;4953799;29;20571;-73
2021/06/05 07:15:03;;;;;;;15.17;13.67;;;;;;;20.67;88.41;99726.44;4954087;29;20511;-74
2021/06/05 07:17:29;;;;;;;12.10;11.00;;;;;;;20.86;88.36;99725.47;4953548;29;20477;-75
2021/06/05 07:19:55;;;;;;;12.57;11.23;;;;;;;20.96;87.23;99730.88;4953963;29;20862;-75
2021/06/05 07:22:21;;;;;;;13.90;10.70;;;;;;;20.97;87.88;99736.22;4953909;29;20986;-74
2021/06/05 07:24:47;;;;;;;18.40;12.40;;;;;;;20.72;87.75;99736.94;4948313;29;20443;-75
2021/06/05 07:27:15;;;;;;;13.50;12.10;;;;;;;20.77;89.55;99735.44;4934762;29;20531;-75
2021/06/05 07:29:42;;;;;;;14.13;12.10;;;;;;;20.69;90.36;99729.91;4934835;29;20857;-74
2021/06/05 07:32:08;;;;;;;11.90;10.80;;;;;;;20.80;89.11;99737.03;4934662;29;20473;-74
2021/06/05 07:34:34;;;;;;;11.33;10.23;;;;;;;21.10;87.68;99744.06;4952877;29;20453;-72
2021/06/05 07:37:04;;;;;;;14.30;12.80;;;;;;;21.05;87.86;99743.66;4954076;28;20492;-74
2021/06/05 07:39:31;;;;;;;14.33;12.90;;;;;;;21.27;85.09;99741.50;4953614;29;20436;-74
2021/06/05 07:41:59;;;;;;;16.10;14.13;;;;;;;21.26;87.16;99737.94;4953763;29;20902;-73
2021/06/05 07:44:29;;;;;;;16.07;14.40;;;;;;;21.43;86.02;99739.81;4953664;29;20448;-74
2021/06/05 07:46:57;;;;;;;17.87;15.67;;;;;;;21.74;83.60;99728.50;4953737;29;20775;-72
2021/06/05 07:49:24;;;;;;;18.23;15.40;;;;;;;21.79;82.70;99737.09;4936213;28;20531;-73
2021/06/05 07:51:51;;;;;;;17.97;16.07;;;;;;;22.13;80.86;99740.97;4934619;29;20465;-73
2021/06/05 07:54:18;;;;;;;16.70;14.47;;;;;;;21.85;81.60;99750.16;4934042;29;20445;-74
2021/06/05 07:56:48;;;;;;;16.00;14.30;;;;;;;22.28;80.09;99750.38;4935741;29;20451;-73
2021/06/05 07:59:14;;;;;;;17.23;15.20;;;;;;;22.25;79.08;99743.31;4938926;29;20511;-74
2021/06/05 08:01:42;;;;;;;16.20;14.50;;;;;;;22.18;80.20;99736.72;4953253;29;20912;-73
2021/06/05 08:04:08;;;;;;;14.40;12.70;;;;;;;22.34;79.67;99737.88;4953450;28;20523;-73
2021/06/05 08:06:34;;;;;;;15.77;14.13;;;;;;;22.69;79.54;99739.63;4953542;28;20820;-73
2021/06/05 08:09:00;;;;;;;14.90;13.30;;;;;;;22.69;78.35;99737.72;4953551;29;20549;-74
2021/06/05 08:11:26;;;;;;;17.30;13.60;;;;;;;22.98;77.12;99739.25;4953378;29;20518;-73
2021/06/05 08:13:53;;;;;;;15.53;14.00;;;;;;;23.36;74.70;99741.59;4953332;29;20432;-75
2021/06/05 08:16:19;;;;;;;17.27;13.03;;;;;;;23.66;71.38;99746.47;4951077;28;20539;-74
2021/06/05 08:18:46;;;;;;;28.30;22.73;;;;;;;23.87;69.97;99743.25;4956091;28;20519;-73
2021/06/05 08:21:14;;;;;;;16.00;13.40;;;;;;;23.65;70.71;99738.38;4956938;29;20784;-74
2021/06/05 08:23:41;;;;;;;14.03;12.63;;;;;;;23.57;72.07;99738.41;4951742;29;20829;-73
2021/06/05 08:26:09;;;;;;;14.27;12.37;;;;;;;23.45;71.51;99743.34;4948144;29;20451;-74
2021/06/05 08:28:36;;;;;;;14.07;12.67;;;;;;;23.85;71.53;99745.31;4956369;29;20980;-73
2021/06/05 08:31:07;;;;;;;14.17;12.77;;;;;;;23.98;70.56;99744.81;4956700;29;20878;-74
2021/06/05 08:33:34;;;;;;;14.87;13.37;;;;;;;24.02;69.89;99737.94;4956384;29;20523;-72
2021/06/05 08:36:01;;;;;;;18.10;16.10;;;;;;;24.10;70.13;99735.16;4956691;29;20934;-74
2021/06/05 08:38:29;;;;;;;15.97;14.27;;;;;;;23.44;72.36;99730.66;4956672;29;20571;-74
2021/06/05 08:41:01;;;;;;;13.47;12.07;;;;;;;22.90;75.02;99726.31;4956450;29;20953;-73
2021/06/05 08:43:35;;;;;;;14.73;12.83;;;;;;;22.93;76.16;99735.25;4956797;28;20540;-73
2021/06/05 08:46:04;;;;;;;13.07;11.70;;;;;;;23.57;72.05;99739.25;4952127;29;20518;-74
2021/06/05 08:48:30;;;;;;;12.43;11.07;;;;;;;23.84;71.03;99734.50;4955945;29;20483;-73
2021/06/05 08:51:11;;;;;;;11.67;10.57;;;;;;;24.18;69.39;99727.94;4956010;29;20481;-74
2021/06/05 08:53:37;;;;;;;11.90;10.80;;;;;;;24.11;68.02;99736.03;4956002;29;20530;-73
2021/06/05 08:56:09;;;;;;;12.00;10.87;;;;;;;23.90;69.74;99739.28;4956356;29;21279;-74
2021/06/05 08:58:39;;;;;;;11.50;9.90;;;;;;;23.62;70.05;99739.59;4956015;28;20470;-72
2021/06/05 09:01:11;;;;;;;11.17;10.00;;;;;;;22.78;73.04;99730.41;4955278;28;20467;-73
2021/06/05 09:03:40;;;;;;;11.07;10.17;;;;;;;22.84;74.00;99732.50;4937093;29;20465;-74
2021/06/05 09:06:16;;;;;;;12.00;10.83;;;;;;;22.73;75.17;99735.53;4936761;29;20449;-73
2021/06/05 09:08:42;;;;;;;11.57;10.37;;;;;;;22.66;75.36;99739.97;4936700;29;20543;-73
2021/06/05 09:11:10;;;;;;;11.50;10.40;;;;;;;23.00;74.31;99739.97;4936374;29;20499;-73
2021/06/05 09:13:36;;;;;;;13.43;10.17;;;;;;;22.77;74.54;99738.78;4936392;29;20493;-73
2021/06/05 09:16:27;;;;;;;11.40;10.30;;;;;;;22.14;78.38;99743.56;4936549;29;20436;-73
2021/06/05 09:18:56;;;;;;;11.27;10.10;;;;;;;22.11;78.96;99737.50;4937057;29;20437;-73
2021/06/05 09:21:30;;;;;;;11.43;10.33;;;;;;;22.17;79.93;99736.88;4936422;29;20430;-72
2021/06/05 09:24:16;;;;;;;11.60;10.40;;;;;;;21.93;80.45;99738.41;4936395;29;20449;-73
2021/06/05 09:26:46;;;;;;;11.77;10.60;;;;;;;21.94;81.80;99731.06;4936535;29;20441;-74
2021/06/05 09:29:15;;;;;;;12.97;11.77;;;;;;;21.58;83.25;99747.53;4935770;29;20891;-74
2021/06/05 09:31:58;;;;;;;14.10;12.60;;;;;;;21.68;82.74;99751.03;4940674;29;20462;-74
2021/06/05 09:34:31;;;;;;;15.47;13.97;;;;;;;21.32;84.33;99741.91;4955207;29;20480;-74
2021/06/05 09:37:01;;;;;;;15.37;13.80;;;;;;;21.19;86.21;99745.88;4955434;28;20438;-73
2021/06/05 09:39:42;;;;;;;16.50;14.90;;;;;;;20.87;87.87;99745.50;4955776;29;20432;-74
2021/06/05 09:42:12;;;;;;;16.60;14.80;;;;;;;21.10;88.71;99755.03;4955232;29;20482;-74
2021/06/05 09:44:47;;;;;;;13.83;12.47;;;;;;;21.23;86.86;99758.25;4955318;29;20441;-74
2021/06/05 09:47:27;;;;;;;14.93;13.43;;;;;;;21.44;83.15;99752.53;4954785;29;20428;-75
2021/06/05 09:49:58;;;;;;;15.27;13.60;;;;;;;21.76;81.25;99745.63;4955158;28;20491;-72
2021/06/05 09:52:34;;;;;;;12.63;11.33;;;;;;;21.75;79.69;99749.38;4955411;28;21237;-74
2021/06/05 09:55:26;;;;;;;11.70;10.70;;;;;;;21.79;77.99;99750.78;4954623;29;20434;-74
2021/06/05 09:57:53;;;;;;;15.17;11.80;;;;;;;21.88;78.89;99749.00;4952902;29;21071;-75
2021/06/05 10:00:26;;;;;;;12.37;11.17;;;;;;;21.92;78.16;99738.56;4954917;29;20481;-76
2021/06/05 10:02:57;;;;;;;13.17;11.80;;;;;;;22.07;78.74;99740.59;4954597;28;20448;-76
2021/06/05 10:05:29;;;;;;;12.70;11.50;;;;;;;22.28;77.31;99744.88;4954662;28;20526;-75
2021/06/05 10:07:59;;;;;;;13.80;12.40;;;;;;;22.16;79.61;99747.00;4954741;29;20906;-76
2021/06/05 10:10:36;;;;;;;14.40;13.00;;;;;;;21.99;80.91;99750.63;4954729;28;20491;-75
2021/06/05 10:13:09;;;;;;;15.70;13.53;;;;;;;21.90;80.62;99752.44;4954229;29;20503;-76
2021/06/05 10:15:48;;;;;;;15.17;13.67;;;;;;;21.84;82.70;99755.78;4937788;29;20838;-75
2021/06/05 10:18:20;;;;;;;18.90;14.97;;;;;;;22.04;82.27;99748.25;4935563;29;20429;-74
2021/06/05 10:20:51;;;;;;;18.70;16.80;;;;;;;22.44;81.94;99749.59;4935888;29;20436;-74
2021/06/05 10:23:23;;;;;;;16.40;14.80;;;;;;;22.68;80.33;99754.34;4948904;29;20457;-75
2021/06/05 10:25:54;;;;;;;14.73;13.23;;;;;;;22.81;80.00;99752.03;4954116;29;20443;-73
2021/06/05 10:28:23;;;;;;;16.17;14.47;;;;;;;23.03;80.16;99747.88;4954182;29;20429;-74
2021/06/05 10:30:53;;;;;;;15.90;14.20;;;;;;;23.20;78.98;99747.91;4954159;29;20542;-74
2021/06/05 10:33:33;;;;;;;17.60;15.50;;;;;;;23.18;77.64;99752.72;4954024;29;20436;-74
2021/06/05 10:36:01;;;;;;;16.97;15.20;;;;;;;23.29;78.20;99750.53;4954122;28;20454;-74
2021/06/05 10:38:36;;;;;;;13.83;12.43;;;;;;;23.76;76.11;99746.34;4953883;29;20466;-75
2021/06/05 10:41:04;;;;;;;15.17;13.50;;;;;;;23.53;77.13;99757.09;4953486;28;20514;-73
2021/06/05 10:43:30;;;;;;;16.43;14.77;;;;;;;23.39;78.75;99755.88;4953914;28;20432;-74
2021/06/05 10:45:58;;;;;;;18.00;16.23;;;;;;;23.35;78.57;99754.50;4954185;29;20494;-74
2021/06/05 10:48:41;;;;;;;17.13;15.33;;;;;;;22.95;78.96;99750.56;4953917;28;20437;-75
2021/06/05 10:51:13;;;;;;;17.90;15.50;;;;;;;23.02;78.37;99748.91;4953774;29;20946;-74
2021/06/05 10:53:44;;;;;;;18.17;16.23;;;;;;;22.95;77.41;99758.81;4953915;29;20432;-74
2021/06/05 10:56:14;;;;;;;19.10;16.90;;;;;;;22.73;79.91;99754.75;4952822;29;20530;-74
2021/06/05 10:58:45;;;;;;;19.03;17.13;;;;;;;22.65;81.18;99761.03;4953574;29;20436;-73
2021/06/05 11:01:32;;;;;;;22.57;19.20;;;;;;;22.58;81.43;99751.75;4953612;28;20916;-74
2021/06/05 11:04:01;;;;;;;17.83;14.83;;;;;;;22.45;81.03;99752.19;4952953;29;20457;-74
2021/06/05 11:06:29;;;;;;;19.80;17.70;;;;;;;22.36;80.76;99755.88;4953860;29;20463;-75
2021/06/05 11:08:59;;;;;;;24.20;19.63;;;;;;;22.50;80.54;99751.72;4953465;29;20460;-74
2021/06/05 11:11:37;;;;;;;20.47;17.30;;;;;;;22.63;79.83;99754.00;4945954;28;20480;-75
2021/06/05 11:14:10;;;;;;;20.40;16.47;;;;;;;22.80;78.68;99749.47;4934290;29;20582;-74
2021/06/05 11:17:08;;;;;;;18.20;16.30;;;;;;;22.86;77.99;99755.16;4934500;29;20429;-74
2021/06/05 11:19:38;;;;;;;18.20;16.27;;;;;;;23.02;76.09;99753.50;4930314;29;20457;-75
2021/06/05 11:22:07;;;;;;;15.03;13.53;;;;;;;23.04;73.66;99751.47;4937756;29;20851;-75
2021/06/05 11:24:37;;;;;;;15.97;14.37;;;;;;;22.92;74.30;99750.03;4940238;29;20821;-73
2021/06/05 11:27:05;;;;;;;17.80;13.80;;;;;;;22.97;73.64;99750.38;4933691;29;20437;-74